Time;durP1;ratioP1;P1;durP2;ratioP2;P2;SDS_P1;SDS_P2;PMS_P1;PMS_P2;Temp;Humidity;BMP_temperature;BMP_pressure;BME280_temperature;BME280_humidity;BME280_pressure;Samples;Min_cycle;Max_cycle;Signal;HPM_P1;HPM_P2
2023/06/21 00:01:38;;;;;;;3.15;2.85;;;;;;;;;;7308603;19;140834;-78
2023/06/21 00:04:06;;;;;;;2.50;2.30;;;;;;;;;;7305874;19;140566;-78
2023/06/21 00:06:36;;;;;;;3.00;2.58;;;;;;;;;;7305354;19;140706;-78
2023/06/21 00:09:04;;;;;;;2.70;2.40;;;;;;;;;;7305356;19;141409;-78
2023/06/21 00:11:32;;;;;;;3.10;2.70;;;;;;;;;;7304872;19;142673;-78
2023/06/21 00:13:59;;;;;;;2.80;2.25;;;;;;;;;;7301458;19;140656;-77
2023/06/21 00:16:26;;;;;;;2.30;2.10;;;;;;;;;;7305313;19;140415;-77
2023/06/21 00:18:54;;;;;;;2.55;2.20;;;;;;;;;;7304694;19;140583;-77
2023/06/21 00:21:21;;;;;;;2.65;2.20;;;;;;;;;;7305012;19;141963;-77
2023/06/21 00:23:48;;;;;;;2.50;2.30;;;;;;;;;;7305539;19;140443;-77
2023/06/21 00:26:15;;;;;;;2.40;2.10;;;;;;;;;;7304454;19;140476;-76
2023/06/21 00:28:42;;;;;;;2.45;1.95;;;;;;;;;;7304829;19;142153;-77
2023/06/21 00:31:10;;;;;;;2.55;2.35;;;;;;;;;;7303745;19;142232;-78
2023/06/21 00:33:38;;;;;;;2.75;2.10;;;;;;;;;;7302054;19;140606;-77
2023/06/21 00:36:06;;;;;;;2.40;2.20;;;;;;;;;;7305135;19;140616;-77
2023/06/21 00:38:34;;;;;;;2.40;2.20;;;;;;;;;;7304215;19;141377;-77
2023/06/21 00:41:05;;;;;;;2.90;2.25;;;;;;;;;;7303467;19;142051;-77
2023/06/21 00:43:33;;;;;;;2.33;2.13;;;;;;;;;;7303439;19;140783;-77
2023/06/21 00:46:02;;;;;;;2.60;2.20;;;;;;;;;;7301734;19;140639;-77
2023/06/21 00:48:32;;;;;;;2.42;2.20;;;;;;;;;;7302645;19;142088;-77
2023/06/21 00:50:59;;;;;;;2.33;2.10;;;;;;;;;;7303759;19;144303;-77
2023/06/21 00:53:29;;;;;;;2.30;2.10;;;;;;;;;;7304503;19;140695;-78
2023/06/21 00:55:56;;;;;;;2.47;2.28;;;;;;;;;;7303646;19;140478;-77
2023/06/21 00:58:24;;;;;;;2.10;1.90;;;;;;;;;;7302765;19;141809;-77
2023/06/21 01:00:51;;;;;;;2.20;1.90;;;;;;;;;;7303074;19;141796;-77
2023/06/21 01:03:20;;;;;;;2.67;2.40;;;;;;;;;;7302806;19;140538;-77
2023/06/21 01:06:02;;;;;;;2.17;1.98;;;;;;;;;;7303972;19;140641;-76
2023/06/21 01:08:49;;;;;;;2.38;2.13;;;;;;;;;;7302681;19;141310;-77
2023/06/21 01:11:31;;;;;;;2.10;1.90;;;;;;;;;;7303070;19;143106;-76
2023/06/21 01:14:20;;;;;;;2.20;2.00;;;;;;;;;;7302003;19;140546;-77
2023/06/21 01:16:50;;;;;;;2.40;2.13;;;;;;;;;;7303265;19;140433;-78
2023/06/21 01:19:38;;;;;;;2.37;2.10;;;;;;;;;;7303007;19;142378;-78
2023/06/21 01:22:34;;;;;;;2.17;1.98;;;;;;;;;;7302736;19;141556;-77
2023/06/21 01:25:29;;;;;;;2.17;1.98;;;;;;;;;;7303137;19;140533;-78
2023/06/21 01:28:34;;;;;;;2.40;2.13;;;;;;;;;;7301596;19;140498;-78
2023/06/21 01:31:01;;;;;;;2.10;1.80;;;;;;;;;;7301675;19;141368;-77
2023/06/21 01:33:31;;;;;;;2.10;1.90;;;;;;;;;;7302480;19;141890;-77
2023/06/21 01:36:03;;;;;;;1.85;1.75;;;;;;;;;;7302440;19;140718;-77
2023/06/21 01:38:30;;;;;;;2.42;2.22;;;;;;;;;;7301942;19;141178;-78
2023/06/21 01:40:58;;;;;;;2.13;1.92;;;;;;;;;;7303003;19;142248;-78
2023/06/21 01:43:25;;;;;;;2.00;1.80;;;;;;;;;;7301364;19;141901;-77
2023/06/21 01:45:53;;;;;;;2.15;1.70;;;;;;;;;;7302646;19;140388;-78
2023/06/21 01:48:22;;;;;;;2.03;1.83;;;;;;;;;;7302383;19;140540;-78
2023/06/21 01:50:51;;;;;;;2.33;1.98;;;;;;;;;;7302139;19;142411;-78
2023/06/21 01:53:19;;;;;;;1.98;1.80;;;;;;;;;;7301201;19;140905;-77
2023/06/21 01:55:51;;;;;;;2.00;1.70;;;;;;;;;;7302476;19;140769;-78
2023/06/21 01:58:19;;;;;;;1.90;1.70;;;;;;;;;;7302556;19;140443;-76
2023/06/21 02:00:46;;;;;;;1.98;1.80;;;;;;;;;;7299537;19;142314;-76
2023/06/21 02:03:15;;;;;;;2.58;1.88;;;;;;;;;;7301564;19;142269;-77
2023/06/21 02:05:43;;;;;;;2.05;1.85;;;;;;;;;;7301949;19;140588;-76
2023/06/21 02:08:16;;;;;;;1.80;1.70;;;;;;;;;;7301694;19;140789;-76
2023/06/21 02:10:45;;;;;;;1.85;1.70;;;;;;;;;;7301717;19;140456;-77
2023/06/21 02:13:14;;;;;;;2.05;1.85;;;;;;;;;;7300767;19;142088;-76
2023/06/21 02:15:41;;;;;;;2.05;1.70;;;;;;;;;;7301335;19;140515;-76
2023/06/21 02:18:12;;;;;;;2.05;1.88;;;;;;;;;;7301634;19;140463;-76
2023/06/21 02:20:39;;;;;;;1.60;1.50;;;;;;;;;;7301253;19;140459;-77
2023/06/21 02:23:07;;;;;;;1.80;1.70;;;;;;;;;;7298891;19;142841;-77
2023/06/21 02:25:36;;;;;;;1.80;1.70;;;;;;;;;;7298354;19;140370;-77
2023/06/21 02:28:04;;;;;;;2.00;1.80;;;;;;;;;;7299030;19;140635;-76
2023/06/21 02:30:32;;;;;;;1.60;1.42;;;;;;;;;;7298291;19;142211;-77
2023/06/21 02:32:59;;;;;;;2.10;1.90;;;;;;;;;;7298347;19;140723;-77
2023/06/21 02:35:27;;;;;;;1.85;1.60;;;;;;;;;;7298539;19;140594;-77
2023/06/21 02:37:55;;;;;;;1.85;1.60;;;;;;;;;;7299064;19;140582;-76
2023/06/21 02:40:22;;;;;;;1.83;1.70;;;;;;;;;;7305537;19;142234;-77
2023/06/21 02:42:49;;;;;;;1.85;1.67;;;;;;;;;;7305288;19;142548;-76
2023/06/21 02:45:17;;;;;;;1.95;1.65;;;;;;;;;;7304887;19;140623;-76
2023/06/21 02:47:47;;;;;;;1.92;1.67;;;;;;;;;;7306227;19;140676;-76
2023/06/21 02:50:17;;;;;;;;;;;;;;;;;;7304715;19;141212;-76
2023/06/21 02:52:44;;;;;;;2.10;1.50;;;;;;;;;;7305162;19;149503;-76
2023/06/21 02:55:11;;;;;;;1.52;1.42;;;;;;;;;;7306020;19;140498;-76
2023/06/21 02:57:39;;;;;;;1.65;1.55;;;;;;;;;;7306327;19;140667;-76
2023/06/21 03:00:17;;;;;;;1.83;1.73;;;;;;;;;;7304628;19;140498;-76
2023/06/21 03:02:45;;;;;;;2.22;1.60;;;;;;;;;;7305725;19;141859;-75
2023/06/21 03:05:13;;;;;;;1.52;1.42;;;;;;;;;;7305989;19;140549;-76
2023/06/21 03:07:49;;;;;;;1.70;1.60;;;;;;;;;;7305882;19;140764;-75
2023/06/21 03:10:16;;;;;;;1.67;1.50;;;;;;;;;;7305796;19;141359;-76
2023/06/21 03:12:44;;;;;;;1.50;1.40;;;;;;;;;;7305240;19;140934;-76
2023/06/21 03:15:11;;;;;;;1.90;1.48;;;;;;;;;;7305000;19;140418;-76
2023/06/21 03:17:40;;;;;;;1.50;1.25;;;;;;;;;;7305923;19;140475;-76
2023/06/21 03:20:12;;;;;;;1.60;1.50;;;;;;;;;;7304327;19;141439;-76
2023/06/21 03:22:43;;;;;;;1.50;1.40;;;;;;;;;;7305856;19;140874;-77
2023/06/21 03:25:11;;;;;;;1.50;1.40;;;;;;;;;;7306557;19;140582;-76
2023/06/21 03:27:40;;;;;;;1.55;1.45;;;;;;;;;;7305155;19;140938;-76
2023/06/21 03:30:12;;;;;;;1.70;1.58;;;;;;;;;;7304625;19;140906;-76
2023/06/21 03:32:46;;;;;;;1.52;1.42;;;;;;;;;;7307018;19;141445;-76
2023/06/21 03:35:15;;;;;;;1.40;1.30;;;;;;;;;;7305237;19;140551;-78
2023/06/21 03:37:43;;;;;;;1.50;1.40;;;;;;;;;;7305326;19;140605;-78
2023/06/21 03:40:13;;;;;;;2.00;1.52;;;;;;;;;;7304778;19;141575;-78
2023/06/21 03:42:42;;;;;;;1.52;1.42;;;;;;;;;;7304081;19;142529;-76
2023/06/21 03:45:09;;;;;;;1.40;1.30;;;;;;;;;;7304477;19;140936;-77
2023/06/21 03:47:39;;;;;;;1.90;1.70;;;;;;;;;;7304117;19;140706;-76
2023/06/21 03:50:08;;;;;;;1.60;1.50;;;;;;;;;;7302613;19;143387;-76
2023/06/21 03:52:36;;;;;;;1.42;1.33;;;;;;;;;;7304204;19;141541;-76
2023/06/21 03:55:04;;;;;;;1.30;1.20;;;;;;;;;;7304118;19;140407;-77
2023/06/21 03:57:32;;;;;;;1.48;1.38;;;;;;;;;;7303881;19;140578;-78
2023/06/21 04:00:00;;;;;;;1.50;1.40;;;;;;;;;;7302785;19;141986;-78
2023/06/21 04:02:30;;;;;;;1.63;1.52;;;;;;;;;;7302277;19;142236;-77
2023/06/21 04:04:57;;;;;;;1.40;1.30;;;;;;;;;;7302846;19;140514;-77
2023/06/21 04:07:24;;;;;;;1.48;1.30;;;;;;;;;;7303572;19;140737;-77
2023/06/21 04:09:51;;;;;;;1.60;1.50;;;;;;;;;;7301611;19;141989;-77
2023/06/21 04:12:19;;;;;;;1.50;1.40;;;;;;;;;;7302066;19;142064;-77
2023/06/21 04:14:46;;;;;;;1.50;1.30;;;;;;;;;;7302502;19;140662;-77
2023/06/21 04:17:13;;;;;;;1.85;1.42;;;;;;;;;;7302013;19;140539;-77
2023/06/21 04:19:40;;;;;;;1.50;1.40;;;;;;;;;;7302846;19;141957;-77
2023/06/21 04:22:07;;;;;;;1.60;1.50;;;;;;;;;;7302251;19;142424;-77
2023/06/21 04:24:36;;;;;;;1.40;1.30;;;;;;;;;;7301967;19;141083;-77
2023/06/21 04:27:05;;;;;;;1.50;1.40;;;;;;;;;;7303061;19;140655;-78
2023/06/21 04:29:36;;;;;;;1.40;1.30;;;;;;;;;;7301970;19;141217;-77
2023/06/21 04:32:03;;;;;;;;;;;;;;;;;;7301909;19;142794;-77
2023/06/21 04:34:33;;;;;;;1.40;1.30;;;;;;;;;;7302055;19;145140;-77
2023/06/21 04:37:05;;;;;;;1.60;1.50;;;;;;;;;;7300955;19;140666;-79
2023/06/21 04:39:33;;;;;;;2.10;1.50;;;;;;;;;;7301829;19;141468;-90
2023/06/21 04:42:00;;;;;;;2.00;1.40;;;;;;;;;;7303025;19;141477;-86
2023/06/21 04:44:28;;;;;;;2.78;1.60;;;;;;;;;;7302899;19;140688;-81
2023/06/21 04:46:56;;;;;;;7.28;2.05;;;;;;;;;;7301500;19;140582;-78
2023/06/21 04:49:26;;;;;;;5.80;2.20;;;;;;;;;;7300952;19;141514;-79
2023/06/21 04:51:57;;;;;;;5.68;1.83;;;;;;;;;;7301059;19;142918;-81
2023/06/21 04:54:25;;;;;;;3.58;1.98;;;;;;;;;;7301748;19;140445;-79
2023/06/21 04:56:53;;;;;;;3.95;1.95;;;;;;;;;;7301728;19;140651;-79
2023/06/21 04:59:20;;;;;;;3.17;1.70;;;;;;;;;;7300821;19;141383;-79
2023/06/21 05:01:48;;;;;;;2.28;1.70;;;;;;;;;;7299264;19;141150;-79
2023/06/21 05:04:16;;;;;;;2.30;1.77;;;;;;;;;;7300993;19;140668;-79
2023/06/21 05:06:43;;;;;;;4.75;2.13;;;;;;;;;;7301522;19;140646;-79
2023/06/21 05:09:10;;;;;;;1.92;1.55;;;;;;;;;;7301093;19;141202;-80
2023/06/21 05:11:40;;;;;;;1.97;1.33;;;;;;;;;;7301262;19;141882;-79
2023/06/21 05:14:07;;;;;;;4.03;2.05;;;;;;;;;;7300314;19;140551;-79
2023/06/21 05:16:34;;;;;;;2.42;1.55;;;;;;;;;;7301259;19;140528;-79
2023/06/21 05:19:02;;;;;;;2.95;1.85;;;;;;;;;;7301974;19;141363;-79
2023/06/21 05:21:29;;;;;;;2.05;1.80;;;;;;;;;;7300477;19;142024;-80
2023/06/21 05:23:56;;;;;;;3.25;1.75;;;;;;;;;;7299655;19;140655;-79
2023/06/21 05:26:23;;;;;;;4.95;1.70;;;;;;;;;;7300711;19;140747;-79
2023/06/21 05:28:51;;;;;;;2.00;1.60;;;;;;;;;;7300559;19;141547;-81
2023/06/21 05:31:18;;;;;;;2.20;1.50;;;;;;;;;;7299767;19;141563;-78
2023/06/21 05:33:47;;;;;;;1.88;1.45;;;;;;;;;;7300529;19;140604;-78
2023/06/21 05:36:15;;;;;;;2.20;1.98;;;;;;;;;;7300563;19;141309;-78
2023/06/21 05:38:42;;;;;;;1.67;1.58;;;;;;;;;;7300064;19;142557;-78
2023/06/21 05:41:10;;;;;;;1.95;1.48;;;;;;;;;;7300747;19;140814;-79
2023/06/21 05:43:37;;;;;;;1.52;1.42;;;;;;;;;;7300269;19;140753;-79
2023/06/21 05:46:04;;;;;;;2.05;1.52;;;;;;;;;;7299661;19;140538;-79
2023/06/21 05:48:31;;;;;;;2.20;1.42;;;;;;;;;;7299923;19;140659;-79
2023/06/21 05:50:59;;;;;;;1.80;1.60;;;;;;;;;;7299858;19;142741;-79
2023/06/21 05:53:26;;;;;;;1.70;1.60;;;;;;;;;;7300135;19;140475;-79
2023/06/21 05:55:54;;;;;;;1.70;1.52;;;;;;;;;;7299595;19;140486;-78
2023/06/21 05:58:21;;;;;;;1.73;1.60;;;;;;;;;;7299534;19;141825;-77
2023/06/21 06:00:49;;;;;;;1.50;1.40;;;;;;;;;;7299563;19;142065;-78
2023/06/21 06:03:17;;;;;;;1.58;1.40;;;;;;;;;;7298931;19;140678;-78
2023/06/21 06:05:44;;;;;;;1.83;1.70;;;;;;;;;;7299918;19;140692;-78
2023/06/21 06:08:12;;;;;;;1.50;1.30;;;;;;;;;;7299160;19;141527;-79
2023/06/21 06:10:41;;;;;;;1.92;1.27;;;;;;;;;;7298897;19;142608;-79
2023/06/21 06:13:08;;;;;;;1.60;1.45;;;;;;;;;;7304446;19;140505;-78
2023/06/21 06:15:36;;;;;;;2.25;1.50;;;;;;;;;;7306699;19;140487;-78
2023/06/21 06:18:03;;;;;;;1.48;1.38;;;;;;;;;;7305858;19;141575;-78
2023/06/21 06:20:30;;;;;;;2.38;1.70;;;;;;;;;;7306793;19;141775;-77
2023/06/21 06:23:00;;;;;;;1.52;1.42;;;;;;;;;;7306645;19;140926;-77
2023/06/21 06:25:27;;;;;;;1.60;1.50;;;;;;;;;;7306001;19;140409;-77
2023/06/21 06:27:54;;;;;;;1.70;1.40;;;;;;;;;;7306065;19;141398;-78
2023/06/21 06:30:21;;;;;;;1.77;1.35;;;;;;;;;;7305445;19;140908;-78
2023/06/21 06:32:49;;;;;;;1.30;1.20;;;;;;;;;;7305323;19;140794;-78
2023/06/21 06:35:17;;;;;;;1.60;1.50;;;;;;;;;;7305994;19;140636;-78
2023/06/21 06:37:44;;;;;;;1.77;1.20;;;;;;;;;;7303862;19;142290;-79
2023/06/21 06:40:11;;;;;;;1.40;1.30;;;;;;;;;;7306150;19;140650;-79
2023/06/21 06:42:39;;;;;;;1.35;1.25;;;;;;;;;;7306041;19;140473;-79
2023/06/21 06:45:07;;;;;;;1.67;1.30;;;;;;;;;;7304938;19;140475;-80
2023/06/21 06:47:34;;;;;;;1.40;1.30;;;;;;;;;;7304962;19;142405;-79
2023/06/21 06:50:05;;;;;;;1.20;1.10;;;;;;;;;;7304770;19;141875;-78
2023/06/21 06:52:32;;;;;;;1.52;1.27;;;;;;;;;;7305546;19;140657;-79
2023/06/21 06:55:00;;;;;;;1.40;1.30;;;;;;;;;;7305834;19;140548;-78
2023/06/21 06:57:27;;;;;;;1.67;1.40;;;;;;;;;;7304987;19;141508;-78
2023/06/21 07:00:08;;;;;;;1.42;1.33;;;;;;;;;;7303668;19;142689;-77
2023/06/21 07:02:36;;;;;;;1.50;1.40;;;;;;;;;;7304755;19;140417;-77
2023/06/21 07:05:04;;;;;;;1.40;1.30;;;;;;;;;;7305322;19;140603;-78
2023/06/21 07:07:31;;;;;;;1.30;1.20;;;;;;;;;;7304177;19;141258;-76
2023/06/21 07:09:58;;;;;;;1.30;1.20;;;;;;;;;;7304693;19;141854;-77
2023/06/21 07:12:26;;;;;;;1.30;1.20;;;;;;;;;;7305449;19;140447;-79
2023/06/21 07:14:53;;;;;;;1.45;1.30;;;;;;;;;;7304755;19;140546;-79
2023/06/21 07:17:23;;;;;;;2.00;1.20;;;;;;;;;;7303760;19;141384;-79
2023/06/21 07:19:50;;;;;;;2.25;1.27;;;;;;;;;;7304327;19;142968;-79
2023/06/21 07:22:18;;;;;;;1.10;1.00;;;;;;;;;;7304313;19;140734;-79
2023/06/21 07:24:45;;;;;;;1.38;1.25;;;;;;;;;;7302865;19;140520;-79
2023/06/21 07:27:12;;;;;;;1.15;1.05;;;;;;;;;;7304026;19;141421;-79
2023/06/21 07:29:39;;;;;;;1.08;1.08;;;;;;;;;;7303830;19;140871;-77
2023/06/21 07:32:07;;;;;;;1.30;1.20;;;;;;;;;;7303934;19;140641;-77
2023/06/21 07:34:34;;;;;;;0.98;0.95;;;;;;;;;;7304151;19;140657;-77
2023/06/21 07:37:01;;;;;;;1.30;1.20;;;;;;;;;;7303877;19;141443;-78
2023/06/21 07:39:28;;;;;;;1.20;1.10;;;;;;;;;;7303892;19;142068;-79
2023/06/21 07:42:12;;;;;;;1.40;1.30;;;;;;;;;;7304947;19;140751;-78
2023/06/21 07:44:40;;;;;;;1.10;0.90;;;;;;;;;;7304418;19;140431;-79
2023/06/21 07:47:08;;;;;;;1.25;1.15;;;;;;;;;;7302673;19;141431;-78
2023/06/21 07:49:35;;;;;;;1.00;1.00;;;;;;;;;;7303758;19;141478;-79
2023/06/21 07:52:02;;;;;;;1.40;1.30;;;;;;;;;;7303658;19;140499;-79
2023/06/21 07:54:29;;;;;;;1.30;1.20;;;;;;;;;;7303201;19;140585;-79
2023/06/21 07:56:57;;;;;;;1.10;1.00;;;;;;;;;;7303132;19;141598;-79
2023/06/21 07:59:24;;;;;;;1.30;1.20;;;;;;;;;;7303631;19;142825;-80
2023/06/21 08:01:51;;;;;;;1.20;1.10;;;;;;;;;;7303047;19;140599;-80
2023/06/21 08:04:18;;;;;;;1.17;1.08;;;;;;;;;;7302643;19;140566;-79
2023/06/21 08:06:46;;;;;;;1.00;0.98;;;;;;;;;;7303736;19;141383;-79
2023/06/21 08:09:13;;;;;;;1.25;1.10;;;;;;;;;;7302293;19;142074;-79
2023/06/21 08:11:49;;;;;;;1.05;0.95;;;;;;;;;;7302289;19;140514;-79
2023/06/21 08:14:16;;;;;;;1.45;1.30;;;;;;;;;;7302910;19;140519;-79
2023/06/21 08:16:44;;;;;;;1.30;1.20;;;;;;;;;;7300440;19;142046;-79
2023/06/21 08:19:11;;;;;;;1.20;1.10;;;;;;;;;;7302565;19;140819;-79
2023/06/21 08:21:39;;;;;;;1.23;1.13;;;;;;;;;;7302904;19;140582;-78
2023/06/21 08:24:08;;;;;;;1.07;1.00;;;;;;;;;;7303054;19;140673;-78
2023/06/21 08:26:36;;;;;;;1.05;1.00;;;;;;;;;;7302264;19;141608;-78
2023/06/21 08:29:03;;;;;;;1.20;1.10;;;;;;;;;;7302042;19;142760;-79
2023/06/21 08:31:31;;;;;;;1.20;1.10;;;;;;;;;;7302438;19;140516;-79
2023/06/21 08:33:58;;;;;;;1.27;1.17;;;;;;;;;;7301780;19;140674;-79
2023/06/21 08:36:26;;;;;;;1.33;1.23;;;;;;;;;;7302508;19;140868;-79
2023/06/21 08:38:53;;;;;;;1.02;0.93;;;;;;;;;;7302328;19;142769;-79
2023/06/21 08:41:21;;;;;;;1.23;1.13;;;;;;;;;;7302528;19;140603;-79
2023/06/21 08:43:48;;;;;;;1.30;1.15;;;;;;;;;;7301877;19;140717;-79
2023/06/21 08:46:16;;;;;;;1.35;1.25;;;;;;;;;;7302128;19;140444;-78
2023/06/21 08:48:50;;;;;;;1.38;1.27;;;;;;;;;;7301100;19;141936;-78
2023/06/21 08:51:21;;;;;;;1.20;1.10;;;;;;;;;;7301581;19;140518;-80
2023/06/21 08:54:01;;;;;;;;;;;;;;;;;;7303842;19;140557;-79
2023/06/21 08:56:31;;;;;;;1.27;1.17;;;;;;;;;;7300978;19;151775;-78
2023/06/21 08:59:22;;;;;;;1.03;0.93;;;;;;;;;;7300631;19;143870;-79
2023/06/21 09:01:58;;;;;;;0.98;0.90;;;;;;;;;;7301982;19;140711;-79
2023/06/21 09:04:33;;;;;;;1.40;1.30;;;;;;;;;;7299609;19;140666;-78
2023/06/21 09:07:05;;;;;;;1.05;1.02;;;;;;;;;;7301144;19;142395;-79
2023/06/21 09:09:32;;;;;;;1.10;1.00;;;;;;;;;;7301025;19;141873;-79
2023/06/21 09:11:59;;;;;;;1.10;1.00;;;;;;;;;;7300804;19;140421;-79
2023/06/21 09:14:31;;;;;;;1.05;1.05;;;;;;;;;;7299909;19;140581;-79
2023/06/21 09:17:02;;;;;;;1.17;1.08;;;;;;;;;;7301139;19;140741;-77
2023/06/21 09:19:30;;;;;;;1.15;1.05;;;;;;;;;;7299216;19;142080;-77
2023/06/21 09:21:59;;;;;;;1.27;1.13;;;;;;;;;;7301880;19;140460;-77
2023/06/21 09:24:26;;;;;;;0.95;0.95;;;;;;;;;;7302347;19;140939;-78
2023/06/21 09:26:54;;;;;;;1.30;1.13;;;;;;;;;;7299913;19;140598;-79
2023/06/21 09:29:21;;;;;;;1.40;1.30;;;;;;;;;;7300998;19;142795;-79
2023/06/21 09:31:48;;;;;;;1.33;1.13;;;;;;;;;;7301131;19;140552;-78
2023/06/21 09:34:15;;;;;;;1.27;1.17;;;;;;;;;;7298479;19;140631;-78
2023/06/21 09:36:42;;;;;;;1.15;1.08;;;;;;;;;;7301229;19;141182;-79
2023/06/21 09:39:11;;;;;;;1.15;1.05;;;;;;;;;;7300411;19;143135;-78
2023/06/21 09:41:41;;;;;;;1.10;1.00;;;;;;;;;;7301663;19;140576;-77
2023/06/21 09:44:08;;;;;;;0.85;0.85;;;;;;;;;;7300072;19;140659;-77
2023/06/21 09:46:35;;;;;;;0.93;0.93;;;;;;;;;;7299390;19;141340;-77
2023/06/21 09:49:09;;;;;;;1.10;1.00;;;;;;;;;;7307155;19;141584;-77
2023/06/21 09:51:46;;;;;;;1.23;1.13;;;;;;;;;;7308661;19;140542;-77
2023/06/21 09:54:13;;;;;;;1.33;1.23;;;;;;;;;;7307409;19;140721;-77
2023/06/21 09:56:40;;;;;;;1.10;1.00;;;;;;;;;;7305913;19;140464;-76
2023/06/21 09:59:15;;;;;;;0.98;0.98;;;;;;;;;;7307200;19;142178;-79
2023/06/21 10:01:47;;;;;;;1.10;1.00;;;;;;;;;;7306977;19;140556;-75
2023/06/21 10:04:17;;;;;;;0.82;0.82;;;;;;;;;;7306746;19;140881;-78
2023/06/21 10:06:54;;;;;;;0.90;0.90;;;;;;;;;;7304776;19;140837;-77
2023/06/21 10:09:22;;;;;;;0.95;0.90;;;;;;;;;;7307069;19;142222;-78
2023/06/21 10:11:54;;;;;;;0.80;0.80;;;;;;;;;;7307302;19;140960;-77
2023/06/21 10:14:25;;;;;;;0.98;0.95;;;;;;;;;;7306791;19;140423;-78
2023/06/21 10:16:56;;;;;;;1.00;1.00;;;;;;;;;;7306916;19;141435;-78
2023/06/21 10:19:27;;;;;;;0.98;0.90;;;;;;;;;;7305902;19;141751;-78
2023/06/21 10:22:07;;;;;;;1.10;1.00;;;;;;;;;;7306027;19;141867;-77
2023/06/21 10:24:40;;;;;;;1.20;1.10;;;;;;;;;;7306512;19;140512;-78
2023/06/21 10:27:09;;;;;;;0.90;0.90;;;;;;;;;;7305019;19;142415;-78
2023/06/21 10:29:39;;;;;;;1.00;1.00;;;;;;;;;;7305619;19;141037;-79
2023/06/21 10:32:07;;;;;;;0.95;0.90;;;;;;;;;;7305587;19;140618;-78
2023/06/21 10:34:43;;;;;;;0.95;0.95;;;;;;;;;;7305511;19;140439;-78
2023/06/21 10:37:19;;;;;;;0.93;0.93;;;;;;;;;;7305027;19;142412;-78
2023/06/21 10:39:51;;;;;;;1.05;0.98;;;;;;;;;;7305503;19;141234;-78
2023/06/21 10:42:36;;;;;;;0.90;0.90;;;;;;;;;;7305276;19;140615;-78
2023/06/21 10:45:09;;;;;;;0.77;0.77;;;;;;;;;;7306260;19;140622;-79
2023/06/21 10:47:41;;;;;;;1.08;1.00;;;;;;;;;;7305319;19;140724;-78
2023/06/21 10:50:11;;;;;;;1.02;1.02;;;;;;;;;;7306081;19;141296;-77
2023/06/21 10:52:40;;;;;;;0.90;0.90;;;;;;;;;;7305498;19;141398;-80
2023/06/21 10:55:08;;;;;;;0.70;0.70;;;;;;;;;;7305658;19;140548;-78
2023/06/21 10:57:36;;;;;;;1.00;1.00;;;;;;;;;;7303590;19;140882;-78
2023/06/21 11:00:07;;;;;;;0.82;0.82;;;;;;;;;;7303174;19;142220;-79
2023/06/21 11:02:35;;;;;;;0.98;0.98;;;;;;;;;;7306073;19;140596;-78
2023/06/21 11:05:16;;;;;;;0.88;0.80;;;;;;;;;;7304994;19;140595;-79
2023/06/21 11:07:50;;;;;;;0.90;0.90;;;;;;;;;;7306209;19;141188;-78
2023/06/21 11:10:29;;;;;;;1.00;1.00;;;;;;;;;;7304800;19;142623;-75
2023/06/21 11:12:57;;;;;;;0.98;0.90;;;;;;;;;;7305801;19;140626;-76
2023/06/21 11:15:25;;;;;;;1.17;0.90;;;;;;;;;;7303568;19;140719;-77
2023/06/21 11:18:05;;;;;;;0.70;0.70;;;;;;;;;;7303290;19;141658;-80
2023/06/21 11:20:50;;;;;;;0.75;0.75;;;;;;;;;;7304822;19;142495;-76
2023/06/21 11:23:19;;;;;;;1.13;0.80;;;;;;;;;;7305320;19;140433;-76
2023/06/21 11:25:50;;;;;;;0.82;0.82;;;;;;;;;;7304207;19;140709;-77
2023/06/21 11:28:20;;;;;;;0.80;0.80;;;;;;;;;;7304855;19;142370;-77
2023/06/21 11:31:01;;;;;;;0.80;0.80;;;;;;;;;;7304882;19;140673;-76
2023/06/21 11:33:29;;;;;;;0.98;0.88;;;;;;;;;;7302330;19;140520;-82
2023/06/21 11:36:05;;;;;;;0.98;0.98;;;;;;;;;;7302935;19;141021;-88
2023/06/21 11:38:34;;;;;;;0.85;0.85;;;;;;;;;;7303856;19;141594;-82
2023/06/21 11:41:22;;;;;;;1.00;1.00;;;;;;;;;;7303723;19;142207;-89
2023/06/21 11:43:55;;;;;;;1.10;1.00;;;;;;;;;;7305421;19;140428;-90
2023/06/21 11:46:24;;;;;;;1.02;0.98;;;;;;;;;;7303083;19;140650;-76
2023/06/21 11:48:58;;;;;;;1.00;1.00;;;;;;;;;;7303426;19;141458;-76
2023/06/21 11:51:29;;;;;;;0.90;0.90;;;;;;;;;;7304959;19;140935;-79
2023/06/21 11:53:59;;;;;;;0.80;0.80;;;;;;;;;;7303060;19;141908;-77
2023/06/21 11:56:30;;;;;;;1.00;0.90;;;;;;;;;;7303464;19;140641;-77
2023/06/21 11:58:59;;;;;;;0.80;0.80;;;;;;;;;;7304231;19;142755;-78
2023/06/21 12:01:35;;;;;;;0.85;0.85;;;;;;;;;;7301814;19;140944;-78
2023/06/21 12:04:03;;;;;;;1.45;1.10;;;;;;;;;;7299739;19;140599;-76
2023/06/21 12:06:36;;;;;;;1.00;0.90;;;;;;;;;;7302490;19;140905;-79
2023/06/21 12:09:04;;;;;;;1.05;0.95;;;;;;;;;;7302156;19;141013;-78
2023/06/21 12:11:31;;;;;;;0.90;0.90;;;;;;;;;;7302654;19;141619;-76
2023/06/21 12:14:19;;;;;;;0.80;0.80;;;;;;;;;;7301895;19;140717;-78
2023/06/21 12:16:49;;;;;;;0.75;0.75;;;;;;;;;;7301028;19;140969;-79
2023/06/21 12:19:21;;;;;;;1.15;0.88;;;;;;;;;;7301247;19;141184;-78
2023/06/21 12:22:02;;;;;;;0.85;0.85;;;;;;;;;;7300448;19;142338;-85
2023/06/21 12:24:31;;;;;;;1.17;1.02;;;;;;;;;;7301653;19;140607;-79
2023/06/21 12:27:00;;;;;;;1.05;0.95;;;;;;;;;;7303199;19;140556;-79
2023/06/21 12:29:28;;;;;;;1.10;0.90;;;;;;;;;;7300387;19;140904;-79
2023/06/21 12:31:58;;;;;;;1.05;0.95;;;;;;;;;;7301187;19;140718;-79
2023/06/21 12:34:26;;;;;;;1.33;1.23;;;;;;;;;;7298215;19;140553;-79
2023/06/21 12:36:55;;;;;;;1.25;1.15;;;;;;;;;;7300688;19;140630;-80
2023/06/21 12:39:22;;;;;;;1.35;1.25;;;;;;;;;;7302000;19;141768;-80
2023/06/21 12:41:50;;;;;;;1.00;0.90;;;;;;;;;;7301479;19;142671;-79
2023/06/21 12:44:26;;;;;;;1.30;1.20;;;;;;;;;;7299520;19;140676;-80
2023/06/21 12:53:26;;;;;;;7.38;5.45;;;;;;;;;;7302163;19;141805;-80
2023/06/21 12:55:56;;;;;;;7.47;5.45;;;;;;;;;;7303047;19;140697;-79
2023/06/21 12:58:23;;;;;;;7.43;5.25;;;;;;;;;;7308152;19;140787;-79
2023/06/21 13:00:50;;;;;;;6.78;4.90;;;;;;;;;;7314472;19;142198;-79
2023/06/21 13:03:20;;;;;;;6.35;4.95;;;;;;;;;;7307371;19;140776;-80
2023/06/21 13:05:48;;;;;;;6.28;5.18;;;;;;;;;;7309862;19;140975;-79
2023/06/21 13:08:15;;;;;;;7.20;5.47;;;;;;;;;;7304666;19;140569;-79
2023/06/21 13:10:42;;;;;;;6.30;4.68;;;;;;;;;;7301202;19;140777;-75
2023/06/21 13:13:11;;;;;;;22.65;17.00;;;;;;;;;;7299787;19;142050;-83
2023/06/21 13:15:38;;;;;;;11.20;9.13;;;;;;;;;;7301519;19;140718;-79
2023/06/21 13:18:05;;;;;;;14.30;10.65;;;;;;;;;;7300669;19;140499;-79
2023/06/21 13:20:36;;;;;;;14.63;10.70;;;;;;;;;;7298292;19;141463;-79
2023/06/21 13:23:15;;;;;;;15.00;11.25;;;;;;;;;;7296135;19;142020;-78
2023/06/21 13:25:43;;;;;;;12.20;10.48;;;;;;;;;;7300225;19;140656;-78
2023/06/21 13:30:52;;;;;;;13.10;9.90;;;;;;;;;;7300763;19;140777;-78
2023/06/21 13:35:58;;;;;;;11.20;9.07;;;;;;;;;;7300166;19;140961;-78
2023/06/21 13:38:26;;;;;;;11.13;8.63;;;;;;;;;;7299925;19;140700;-78
2023/06/21 13:40:53;;;;;;;10.13;8.85;;;;;;;;;;7299816;19;140442;-78
2023/06/21 13:43:20;;;;;;;10.07;8.73;;;;;;;;;;7299849;19;143040;-78
2023/06/21 13:45:48;;;;;;;11.00;8.10;;;;;;;;;;7299953;19;140585;-78
2023/06/21 13:48:16;;;;;;;9.95;8.32;;;;;;;;;;7300226;19;140759;-78
2023/06/21 13:50:43;;;;;;;10.98;8.43;;;;;;;;;;7300030;19;142156;-78
2023/06/21 13:53:21;;;;;;;8.88;7.75;;;;;;;;;;7299181;19;141561;-78
2023/06/21 13:55:49;;;;;;;9.40;7.45;;;;;;;;;;7298993;19;140555;-78
2023/06/21 13:58:17;;;;;;;9.88;8.00;;;;;;;;;;7300339;19;140510;-78
2023/06/21 14:00:45;;;;;;;9.90;8.48;;;;;;;;;;7298396;19;141980;-78
2023/06/21 14:05:53;;;;;;;8.65;7.18;;;;;;;;;;7298149;19;141485;-78
2023/06/21 14:08:21;;;;;;;8.25;6.90;;;;;;;;;;7299645;19;140437;-78
2023/06/21 14:10:48;;;;;;;9.82;7.30;;;;;;;;;;7297915;19;140474;-78
2023/06/21 14:13:17;;;;;;;8.80;6.93;;;;;;;;;;7297130;19;142545;-78
2023/06/21 14:15:48;;;;;;;8.45;6.93;;;;;;;;;;7299994;19;140419;-78
2023/06/21 14:18:15;;;;;;;7.88;6.80;;;;;;;;;;7299605;19;140752;-78
2023/06/21 14:20:43;;;;;;;8.60;6.90;;;;;;;;;;7296901;19;141425;-78
2023/06/21 14:23:10;;;;;;;8.75;6.57;;;;;;;;;;7299167;19;141914;-78
2023/06/21 14:25:56;;;;;;;6.95;6.22;;;;;;;;;;7296520;19;141250;-78
2023/06/21 14:28:33;;;;;;;7.05;6.30;;;;;;;;;;7293739;19;141033;-78
2023/06/21 14:38:18;;;;;;;7.43;5.90;;;;;;;;;;7304048;19;140697;-78
2023/06/21 14:40:45;;;;;;;8.45;6.95;;;;;;;;;;7305451;19;140526;-78
2023/06/21 14:46:00;;;;;;;7.18;6.20;;;;;;;;;;7306151;19;142832;-78
2023/06/21 14:48:27;;;;;;;6.70;5.60;;;;;;;;;;7305837;19;140393;-78
2023/06/21 14:50:58;;;;;;;6.40;5.63;;;;;;;;;;7305173;19;140601;-78
2023/06/21 14:53:26;;;;;;;6.35;5.72;;;;;;;;;;7303072;19;140646;-78
2023/06/21 14:55:53;;;;;;;17.75;14.35;;;;;;;;;;7305321;19;143250;-76
2023/06/21 14:58:20;;;;;;;51.00;39.88;;;;;;;;;;7305846;19;140600;-76
2023/06/21 15:00:48;;;;;;;58.83;45.63;;;;;;;;;;7305193;19;140673;-75
2023/06/21 15:03:15;;;;;;;57.70;46.20;;;;;;;;;;7304010;19;141228;-76
2023/06/21 15:05:42;;;;;;;58.22;46.80;;;;;;;;;;7304170;19;142543;-76
2023/06/21 15:08:26;;;;;;;54.70;45.05;;;;;;;;;;7305028;19;140727;-75